sensor_id;sensor_type;location;lat;lon;timestamp;temperature;humidity
5711;DHT22;61291;52.524;13.422;2023-08-01T00:02:17;18.60;99.90
5711;DHT22;61291;52.524;13.422;2023-08-01T00:04:42;18.60;99.90
5711;DHT22;61291;52.524;13.422;2023-08-01T00:07:08;18.60;99.90
5711;DHT22;61291;52.524;13.422;2023-08-01T00:09:33;18.50;99.90
5711;DHT22;61291;52.524;13.422;2023-08-01T00:11:59;18.50;99.90
5711;DHT22;61291;52.524;13.422;2023-08-01T00:14:24;18.50;99.90
5711;DHT22;61291;52.524;13.422;2023-08-01T00:16:51;18.40;99.90
5711;DHT22;61291;52.524;13.422;2023-08-01T00:19:16;18.40;99.90
5711;DHT22;61291;52.524;13.422;2023-08-01T00:21:42;18.40;99.90
5711;DHT22;61291;52.524;13.422;2023-08-01T00:24:07;18.30;99.90
5711;DHT22;61291;52.524;13.422;2023-08-01T00:26:34;18.30;99.90
5711;DHT22;61291;52.524;13.422;2023-08-01T00:28:59;18.20;99.90
5711;DHT22;61291;52.524;13.422;2023-08-01T00:31:25;18.20;99.90
5711;DHT22;61291;52.524;13.422;2023-08-01T00:33:50;18.10;99.90
5711;DHT22;61291;52.524;13.422;2023-08-01T00:36:15;18.00;99.90
5711;DHT22;61291;52.524;13.422;2023-08-01T00:38:41;18.00;99.90
5711;DHT22;61291;52.524;13.422;2023-08-01T00:41:09;17.90;99.90
5711;DHT22;61291;52.524;13.422;2023-08-01T00:43:34;17.80;99.90
5711;DHT22;61291;52.524;13.422;2023-08-01T00:46:00;17.80;99.90
5711;DHT22;61291;52.524;13.422;2023-08-01T00:48:28;17.80;99.90
5711;DHT22;61291;52.524;13.422;2023-08-01T00:50:54;17.70;99.90
5711;DHT22;61291;52.524;13.422;2023-08-01T00:53:21;17.70;99.90
5711;DHT22;61291;52.524;13.422;2023-08-01T00:55:47;17.70;99.90
5711;DHT22;61291;52.524;13.422;2023-08-01T00:58:13;17.60;99.90
5711;DHT22;61291;52.524;13.422;2023-08-01T01:00:38;17.60;99.90
5711;DHT22;61291;52.524;13.422;2023-08-01T01:03:05;17.50;99.90
5711;DHT22;61291;52.524;13.422;2023-08-01T01:05:34;17.60;99.90
5711;DHT22;61291;52.524;13.422;2023-08-01T01:08:00;17.60;99.90
5711;DHT22;61291;52.524;13.422;2023-08-01T01:10:27;17.60;99.90
5711;DHT22;61291;52.524;13.422;2023-08-01T01:12:52;17.60;99.90
5711;DHT22;61291;52.524;13.422;2023-08-01T01:15:18;17.60;99.90
5711;DHT22;61291;52.524;13.422;2023-08-01T01:17:43;17.60;99.90
5711;DHT22;61291;52.524;13.422;2023-08-01T01:20:09;17.60;99.90
5711;DHT22;61291;52.524;13.422;2023-08-01T01:22:36;17.70;99.90
5711;DHT22;61291;52.524;13.422;2023-08-01T01:25:03;17.60;99.90
5711;DHT22;61291;52.524;13.422;2023-08-01T01:27:30;17.60;99.90
5711;DHT22;61291;52.524;13.422;2023-08-01T01:29:55;17.60;99.90
5711;DHT22;61291;52.524;13.422;2023-08-01T01:32:21;17.60;99.90
5711;DHT22;61291;52.524;13.422;2023-08-01T01:34:48;17.60;99.90
5711;DHT22;61291;52.524;13.422;2023-08-01T01:37:13;17.60;99.90
5711;DHT22;61291;52.524;13.422;2023-08-01T01:39:39;17.70;99.90
5711;DHT22;61291;52.524;13.422;2023-08-01T01:42:05;17.60;99.90
5711;DHT22;61291;52.524;13.422;2023-08-01T01:44:31;17.60;99.90
5711;DHT22;61291;52.524;13.422;2023-08-01T01:46:56;17.60;99.90
5711;DHT22;61291;52.524;13.422;2023-08-01T01:49:22;17.60;99.90
5711;DHT22;61291;52.524;13.422;2023-08-01T01:51:47;17.60;99.90
5711;DHT22;61291;52.524;13.422;2023-08-01T01:54:12;17.60;99.90
5711;DHT22;61291;52.524;13.422;2023-08-01T01:56:38;17.60;99.90
5711;DHT22;61291;52.524;13.422;2023-08-01T01:59:03;17.70;99.90
5711;DHT22;61291;52.524;13.422;2023-08-01T02:01:29;17.70;99.90
5711;DHT22;61291;52.524;13.422;2023-08-01T02:03:54;17.60;99.90
5711;DHT22;61291;52.524;13.422;2023-08-01T02:06:20;17.60;99.90
5711;DHT22;61291;52.524;13.422;2023-08-01T02:08:45;17.60;99.90
5711;DHT22;61291;52.524;13.422;2023-08-01T02:11:11;17.60;99.90
5711;DHT22;61291;52.524;13.422;2023-08-01T02:13:36;17.60;99.90
5711;DHT22;61291;52.524;13.422;2023-08-01T02:16:02;17.60;99.90
5711;DHT22;61291;52.524;13.422;2023-08-01T02:18:27;17.70;99.90
5711;DHT22;61291;52.524;13.422;2023-08-01T02:20:53;17.60;99.90
5711;DHT22;61291;52.524;13.422;2023-08-01T02:23:18;17.60;99.90
5711;DHT22;61291;52.524;13.422;2023-08-01T02:25:44;17.60;99.90
5711;DHT22;61291;52.524;13.422;2023-08-01T02:28:09;17.60;99.90
5711;DHT22;61291;52.524;13.422;2023-08-01T02:30:35;17.60;99.90
5711;DHT22;61291;52.524;13.422;2023-08-01T02:33:01;17.60;99.90
5711;DHT22;61291;52.524;13.422;2023-08-01T02:35:27;17.60;99.90
5711;DHT22;61291;52.524;13.422;2023-08-01T02:37:53;17.60;99.90
5711;DHT22;61291;52.524;13.422;2023-08-01T02:40:19;17.60;99.90
5711;DHT22;61291;52.524;13.422;2023-08-01T02:42:44;17.60;99.90
5711;DHT22;61291;52.524;13.422;2023-08-01T02:45:10;17.60;99.90
5711;DHT22;61291;52.524;13.422;2023-08-01T02:47:35;17.60;99.90
5711;DHT22;61291;52.524;13.422;2023-08-01T02:50:01;17.60;99.90
5711;DHT22;61291;52.524;13.422;2023-08-01T02:52:26;17.70;99.90
5711;DHT22;61291;52.524;13.422;2023-08-01T02:54:53;17.60;99.90
5711;DHT22;61291;52.524;13.422;2023-08-01T02:57:18;17.60;99.90
5711;DHT22;61291;52.524;13.422;2023-08-01T02:59:43;17.60;99.90
5711;DHT22;61291;52.524;13.422;2023-08-01T03:02:09;17.60;99.90
5711;DHT22;61291;52.524;13.422;2023-08-01T03:04:34;17.60;99.90
5711;DHT22;61291;52.524;13.422;2023-08-01T03:07:01;17.60;99.90
5711;DHT22;61291;52.524;13.422;2023-08-01T03:09:26;17.60;99.90
5711;DHT22;61291;52.524;13.422;2023-08-01T03:11:52;17.60;99.90
5711;DHT22;61291;52.524;13.422;2023-08-01T03:14:17;17.60;99.90
5711;DHT22;61291;52.524;13.422;2023-08-01T03:16:43;17.60;99.90
5711;DHT22;61291;52.524;13.422;2023-08-01T03:19:08;17.60;99.90
5711;DHT22;61291;52.524;13.422;2023-08-01T03:21:34;17.60;99.90
5711;DHT22;61291;52.524;13.422;2023-08-01T03:24:01;17.60;99.90
5711;DHT22;61291;52.524;13.422;2023-08-01T03:26:26;17.60;99.90
5711;DHT22;61291;52.524;13.422;2023-08-01T03:28:54;17.60;99.90
5711;DHT22;61291;52.524;13.422;2023-08-01T03:31:21;17.60;99.90
5711;DHT22;61291;52.524;13.422;2023-08-01T03:33:47;17.60;99.90
5711;DHT22;61291;52.524;13.422;2023-08-01T03:36:12;17.50;99.90
5711;DHT22;61291;52.524;13.422;2023-08-01T03:38:39;17.60;99.90
5711;DHT22;61291;52.524;13.422;2023-08-01T03:41:04;17.60;99.90
5711;DHT22;61291;52.524;13.422;2023-08-01T03:43:30;17.60;99.90
5711;DHT22;61291;52.524;13.422;2023-08-01T03:45:55;17.50;99.90
5711;DHT22;61291;52.524;13.422;2023-08-01T03:48:21;17.50;99.90
5711;DHT22;61291;52.524;13.422;2023-08-01T03:50:46;17.50;99.90
5711;DHT22;61291;52.524;13.422;2023-08-01T03:53:12;17.50;99.90
5711;DHT22;61291;52.524;13.422;2023-08-01T03:55:37;17.50;99.90
5711;DHT22;61291;52.524;13.422;2023-08-01T03:58:03;17.50;99.90
5711;DHT22;61291;52.524;13.422;2023-08-01T04:00:28;17.60;99.90
5711;DHT22;61291;52.524;13.422;2023-08-01T04:03:00;17.70;99.90
5711;DHT22;61291;52.524;13.422;2023-08-01T04:05:27;17.80;99.90
5711;DHT22;61291;52.524;13.422;2023-08-01T04:07:52;17.90;99.90
5711;DHT22;61291;52.524;13.422;2023-08-01T04:10:22;18.00;99.90
5711;DHT22;61291;52.524;13.422;2023-08-01T04:12:48;18.10;99.90
5711;DHT22;61291;52.524;13.422;2023-08-01T04:15:14;18.10;99.90
5711;DHT22;61291;52.524;13.422;2023-08-01T04:17:39;18.20;99.90
5711;DHT22;61291;52.524;13.422;2023-08-01T04:20:05;18.30;99.90
5711;DHT22;61291;52.524;13.422;2023-08-01T04:22:31;18.40;99.90
5711;DHT22;61291;52.524;13.422;2023-08-01T04:24:56;18.50;99.90
5711;DHT22;61291;52.524;13.422;2023-08-01T04:27:22;18.50;99.90
5711;DHT22;61291;52.524;13.422;2023-08-01T04:29:48;18.60;99.90
5711;DHT22;61291;52.524;13.422;2023-08-01T04:32:13;18.70;99.90
5711;DHT22;61291;52.524;13.422;2023-08-01T04:34:41;18.70;99.90
5711;DHT22;61291;52.524;13.422;2023-08-01T04:37:07;18.80;99.90
5711;DHT22;61291;52.524;13.422;2023-08-01T04:39:32;18.90;99.90
5711;DHT22;61291;52.524;13.422;2023-08-01T04:41:58;19.00;99.90
5711;DHT22;61291;52.524;13.422;2023-08-01T04:44:24;19.10;99.90
5711;DHT22;61291;52.524;13.422;2023-08-01T04:46:49;19.10;99.90
5711;DHT22;61291;52.524;13.422;2023-08-01T04:49:15;19.10;99.90
5711;DHT22;61291;52.524;13.422;2023-08-01T04:51:40;19.00;99.90
5711;DHT22;61291;52.524;13.422;2023-08-01T04:54:06;19.10;99.90
5711;DHT22;61291;52.524;13.422;2023-08-01T04:56:31;19.10;99.90
5711;DHT22;61291;52.524;13.422;2023-08-01T04:58:57;19.10;99.90
5711;DHT22;61291;52.524;13.422;2023-08-01T05:01:22;19.20;99.90
5711;DHT22;61291;52.524;13.422;2023-08-01T05:03:47;19.20;99.90
5711;DHT22;61291;52.524;13.422;2023-08-01T05:06:13;19.30;99.90
5711;DHT22;61291;52.524;13.422;2023-08-01T05:08:38;19.30;99.90
5711;DHT22;61291;52.524;13.422;2023-08-01T05:11:04;19.30;99.90
5711;DHT22;61291;52.524;13.422;2023-08-01T05:13:29;19.40;99.90
5711;DHT22;61291;52.524;13.422;2023-08-01T05:15:55;19.40;99.90
5711;DHT22;61291;52.524;13.422;2023-08-01T05:18:20;19.40;99.90
5711;DHT22;61291;52.524;13.422;2023-08-01T05:20:46;19.50;99.90
5711;DHT22;61291;52.524;13.422;2023-08-01T05:23:11;19.50;99.90
5711;DHT22;61291;52.524;13.422;2023-08-01T05:25:37;19.60;99.90
5711;DHT22;61291;52.524;13.422;2023-08-01T05:28:02;19.60;99.90
5711;DHT22;61291;52.524;13.422;2023-08-01T05:30:28;19.80;99.90
5711;DHT22;61291;52.524;13.422;2023-08-01T05:32:53;20.00;99.90
5711;DHT22;61291;52.524;13.422;2023-08-01T05:35:19;20.10;99.90
5711;DHT22;61291;52.524;13.422;2023-08-01T05:37:46;20.20;99.90
5711;DHT22;61291;52.524;13.422;2023-08-01T05:40:12;20.20;99.90
5711;DHT22;61291;52.524;13.422;2023-08-01T05:42:37;20.30;99.90
5711;DHT22;61291;52.524;13.422;2023-08-01T05:45:03;20.40;99.90
5711;DHT22;61291;52.524;13.422;2023-08-01T05:47:29;20.40;99.90
5711;DHT22;61291;52.524;13.422;2023-08-01T05:49:55;20.40;99.90
5711;DHT22;61291;52.524;13.422;2023-08-01T05:52:20;20.40;99.90
5711;DHT22;61291;52.524;13.422;2023-08-01T05:54:46;20.40;99.90
5711;DHT22;61291;52.524;13.422;2023-08-01T05:57:12;20.40;99.90
5711;DHT22;61291;52.524;13.422;2023-08-01T05:59:37;20.40;99.90
5711;DHT22;61291;52.524;13.422;2023-08-01T06:02:03;20.40;99.90
5711;DHT22;61291;52.524;13.422;2023-08-01T06:04:28;20.40;99.90
5711;DHT22;61291;52.524;13.422;2023-08-01T06:06:54;20.60;99.90
5711;DHT22;61291;52.524;13.422;2023-08-01T06:09:19;20.70;99.90
5711;DHT22;61291;52.524;13.422;2023-08-01T06:11:45;20.80;99.90
5711;DHT22;61291;52.524;13.422;2023-08-01T06:14:11;20.80;99.90
5711;DHT22;61291;52.524;13.422;2023-08-01T06:16:36;20.90;99.90
5711;DHT22;61291;52.524;13.422;2023-08-01T06:19:02;21.00;99.90
5711;DHT22;61291;52.524;13.422;2023-08-01T06:21:28;21.10;99.90
5711;DHT22;61291;52.524;13.422;2023-08-01T06:23:53;21.10;99.90
5711;DHT22;61291;52.524;13.422;2023-08-01T06:26:19;21.00;99.90
5711;DHT22;61291;52.524;13.422;2023-08-01T06:28:44;21.20;99.90
5711;DHT22;61291;52.524;13.422;2023-08-01T06:31:10;21.20;99.90
5711;DHT22;61291;52.524;13.422;2023-08-01T06:33:35;21.20;99.90
5711;DHT22;61291;52.524;13.422;2023-08-01T06:36:01;21.20;99.90
5711;DHT22;61291;52.524;13.422;2023-08-01T06:38:26;21.30;99.90
5711;DHT22;61291;52.524;13.422;2023-08-01T06:40:52;21.20;99.90
5711;DHT22;61291;52.524;13.422;2023-08-01T06:43:17;21.20;99.90
5711;DHT22;61291;52.524;13.422;2023-08-01T06:45:43;21.20;99.90
5711;DHT22;61291;52.524;13.422;2023-08-01T06:48:08;21.30;99.90
5711;DHT22;61291;52.524;13.422;2023-08-01T06:50:34;21.30;99.90
5711;DHT22;61291;52.524;13.422;2023-08-01T06:52:59;21.30;99.90
5711;DHT22;61291;52.524;13.422;2023-08-01T06:55:26;21.20;99.90
5711;DHT22;61291;52.524;13.422;2023-08-01T06:57:52;21.20;99.90
5711;DHT22;61291;52.524;13.422;2023-08-01T07:00:17;21.10;99.90
5711;DHT22;61291;52.524;13.422;2023-08-01T07:02:43;21.10;99.90
5711;DHT22;61291;52.524;13.422;2023-08-01T07:05:08;21.20;99.90
5711;DHT22;61291;52.524;13.422;2023-08-01T07:07:34;21.30;99.90
5711;DHT22;61291;52.524;13.422;2023-08-01T07:09:59;21.40;99.90
5711;DHT22;61291;52.524;13.422;2023-08-01T07:12:25;21.50;99.90
5711;DHT22;61291;52.524;13.422;2023-08-01T07:14:51;21.60;99.90
5711;DHT22;61291;52.524;13.422;2023-08-01T07:17:16;21.90;99.90
5711;DHT22;61291;52.524;13.422;2023-08-01T07:19:42;22.20;99.90
5711;DHT22;61291;52.524;13.422;2023-08-01T07:22:07;22.50;99.90
5711;DHT22;61291;52.524;13.422;2023-08-01T07:24:33;22.80;99.90
5711;DHT22;61291;52.524;13.422;2023-08-01T07:26:58;23.10;99.90
5711;DHT22;61291;52.524;13.422;2023-08-01T07:29:24;23.50;99.90
5711;DHT22;61291;52.524;13.422;2023-08-01T07:31:49;23.80;99.90
5711;DHT22;61291;52.524;13.422;2023-08-01T07:34:15;24.00;99.90
5711;DHT22;61291;52.524;13.422;2023-08-01T07:36:41;24.40;99.90
5711;DHT22;61291;52.524;13.422;2023-08-01T07:39:06;24.70;99.90
5711;DHT22;61291;52.524;13.422;2023-08-01T07:41:32;25.10;99.90
5711;DHT22;61291;52.524;13.422;2023-08-01T07:44:01;25.10;99.90
5711;DHT22;61291;52.524;13.422;2023-08-01T07:46:27;25.20;99.90
5711;DHT22;61291;52.524;13.422;2023-08-01T07:48:52;25.60;99.90
5711;DHT22;61291;52.524;13.422;2023-08-01T07:51:19;25.80;99.90
5711;DHT22;61291;52.524;13.422;2023-08-01T07:53:44;26.10;99.90
5711;DHT22;61291;52.524;13.422;2023-08-01T07:56:10;26.70;99.90
5711;DHT22;61291;52.524;13.422;2023-08-01T07:58:35;27.20;99.90
5711;DHT22;61291;52.524;13.422;2023-08-01T08:01:05;27.70;99.90
5711;DHT22;61291;52.524;13.422;2023-08-01T08:03:31;27.80;99.90
5711;DHT22;61291;52.524;13.422;2023-08-01T08:05:57;28.00;99.90
5711;DHT22;61291;52.524;13.422;2023-08-01T08:08:23;28.00;99.90
5711;DHT22;61291;52.524;13.422;2023-08-01T08:10:48;28.20;99.90
5711;DHT22;61291;52.524;13.422;2023-08-01T08:13:14;28.50;99.90
5711;DHT22;61291;52.524;13.422;2023-08-01T08:15:39;28.60;99.90
5711;DHT22;61291;52.524;13.422;2023-08-01T08:18:05;28.70;99.90
5711;DHT22;61291;52.524;13.422;2023-08-01T08:20:31;28.70;99.90
5711;DHT22;61291;52.524;13.422;2023-08-01T08:22:57;28.70;99.90
5711;DHT22;61291;52.524;13.422;2023-08-01T08:25:22;28.80;99.90
5711;DHT22;61291;52.524;13.422;2023-08-01T08:27:51;28.70;99.90
5711;DHT22;61291;52.524;13.422;2023-08-01T08:30:17;28.80;99.90
5711;DHT22;61291;52.524;13.422;2023-08-01T08:32:42;28.70;99.90
5711;DHT22;61291;52.524;13.422;2023-08-01T08:35:08;28.50;99.90
5711;DHT22;61291;52.524;13.422;2023-08-01T08:37:33;28.60;99.90
5711;DHT22;61291;52.524;13.422;2023-08-01T08:39:59;28.90;99.90
5711;DHT22;61291;52.524;13.422;2023-08-01T08:42:24;29.50;99.90
5711;DHT22;61291;52.524;13.422;2023-08-01T08:44:52;30.20;99.90
5711;DHT22;61291;52.524;13.422;2023-08-01T08:47:19;30.40;99.90
5711;DHT22;61291;52.524;13.422;2023-08-01T08:49:49;30.40;99.90
5711;DHT22;61291;52.524;13.422;2023-08-01T08:52:15;30.30;99.90
5711;DHT22;61291;52.524;13.422;2023-08-01T08:54:41;30.30;99.90
5711;DHT22;61291;52.524;13.422;2023-08-01T08:57:07;29.90;99.90
5711;DHT22;61291;52.524;13.422;2023-08-01T08:59:33;29.60;99.90
5711;DHT22;61291;52.524;13.422;2023-08-01T09:01:58;29.10;99.90
5711;DHT22;61291;52.524;13.422;2023-08-01T09:04:31;28.70;99.90
5711;DHT22;61291;52.524;13.422;2023-08-01T09:07:03;28.60;99.90
5711;DHT22;61291;52.524;13.422;2023-08-01T09:09:32;28.60;99.90
5711;DHT22;61291;52.524;13.422;2023-08-01T09:11:59;29.00;99.90
5711;DHT22;61291;52.524;13.422;2023-08-01T09:14:24;29.40;99.90
5711;DHT22;61291;52.524;13.422;2023-08-01T09:16:53;29.70;99.90
5711;DHT22;61291;52.524;13.422;2023-08-01T09:19:20;30.10;99.90
5711;DHT22;61291;52.524;13.422;2023-08-01T09:21:46;30.70;99.00
5711;DHT22;61291;52.524;13.422;2023-08-01T09:24:15;31.20;97.90
5711;DHT22;61291;52.524;13.422;2023-08-01T09:26:42;31.60;96.90
5711;DHT22;61291;52.524;13.422;2023-08-01T09:29:08;31.40;95.50
5711;DHT22;61291;52.524;13.422;2023-08-01T09:31:43;31.20;95.30
5711;DHT22;61291;52.524;13.422;2023-08-01T09:34:20;31.20;94.80
5711;DHT22;61291;52.524;13.422;2023-08-01T09:36:46;31.20;94.30
5711;DHT22;61291;52.524;13.422;2023-08-01T09:39:20;30.60;93.90
5711;DHT22;61291;52.524;13.422;2023-08-01T09:41:46;29.50;93.80
5711;DHT22;61291;52.524;13.422;2023-08-01T09:44:16;28.90;94.30
5711;DHT22;61291;52.524;13.422;2023-08-01T09:46:42;28.40;94.80
5711;DHT22;61291;52.524;13.422;2023-08-01T09:49:12;27.70;95.40
5711;DHT22;61291;52.524;13.422;2023-08-01T09:51:50;27.40;96.20
5711;DHT22;61291;52.524;13.422;2023-08-01T09:54:17;26.80;97.20
5711;DHT22;61291;52.524;13.422;2023-08-01T09:56:44;26.40;98.40
5711;DHT22;61291;52.524;13.422;2023-08-01T09:59:10;26.60;99.80
5711;DHT22;61291;52.524;13.422;2023-08-01T10:01:38;27.30;99.90
5711;DHT22;61291;52.524;13.422;2023-08-01T10:04:04;28.10;99.90
5711;DHT22;61291;52.524;13.422;2023-08-01T10:06:33;28.40;99.30
5711;DHT22;61291;52.524;13.422;2023-08-01T10:08:59;28.30;98.70
5711;DHT22;61291;52.524;13.422;2023-08-01T10:11:26;28.10;98.80
5711;DHT22;61291;52.524;13.422;2023-08-01T10:13:52;27.70;98.60
5711;DHT22;61291;52.524;13.422;2023-08-01T10:16:17;27.10;98.60
5711;DHT22;61291;52.524;13.422;2023-08-01T10:18:44;26.60;98.90
5711;DHT22;61291;52.524;13.422;2023-08-01T10:21:14;26.20;99.00
5711;DHT22;61291;52.524;13.422;2023-08-01T10:23:41;25.80;99.50
5711;DHT22;61291;52.524;13.422;2023-08-01T10:26:09;25.40;99.90
5711;DHT22;61291;52.524;13.422;2023-08-01T10:28:41;25.20;99.90
5711;DHT22;61291;52.524;13.422;2023-08-01T10:31:17;25.20;99.90
5711;DHT22;61291;52.524;13.422;2023-08-01T10:33:45;25.40;99.90
5711;DHT22;61291;52.524;13.422;2023-08-01T10:36:18;25.50;99.90
5711;DHT22;61291;52.524;13.422;2023-08-01T10:38:48;25.50;99.90
5711;DHT22;61291;52.524;13.422;2023-08-01T10:41:31;25.30;99.90
5711;DHT22;61291;52.524;13.422;2023-08-01T10:46:54;24.80;99.90
5711;DHT22;61291;52.524;13.422;2023-08-01T10:49:21;24.50;99.90
5711;DHT22;61291;52.524;13.422;2023-08-01T10:51:57;23.70;99.90
5711;DHT22;61291;52.524;13.422;2023-08-01T10:54:24;22.80;99.90
5711;DHT22;61291;52.524;13.422;2023-08-01T10:56:52;22.50;99.90
5711;DHT22;61291;52.524;13.422;2023-08-01T10:59:18;22.40;99.90
5711;DHT22;61291;52.524;13.422;2023-08-01T11:01:49;22.20;99.90
5711;DHT22;61291;52.524;13.422;2023-08-01T11:04:17;22.10;99.90
5711;DHT22;61291;52.524;13.422;2023-08-01T11:06:47;22.00;99.90
5711;DHT22;61291;52.524;13.422;2023-08-01T11:09:21;21.90;99.90
5711;DHT22;61291;52.524;13.422;2023-08-01T11:11:58;21.90;99.90
5711;DHT22;61291;52.524;13.422;2023-08-01T11:14:28;21.90;99.90
5711;DHT22;61291;52.524;13.422;2023-08-01T11:16:56;21.90;99.90
5711;DHT22;61291;52.524;13.422;2023-08-01T11:19:28;21.90;99.90
5711;DHT22;61291;52.524;13.422;2023-08-01T11:21:55;22.20;99.90
5711;DHT22;61291;52.524;13.422;2023-08-01T11:24:25;22.20;99.90
5711;DHT22;61291;52.524;13.422;2023-08-01T11:26:53;22.40;99.90
5711;DHT22;61291;52.524;13.422;2023-08-01T11:29:19;22.40;99.90
5711;DHT22;61291;52.524;13.422;2023-08-01T11:31:59;22.40;99.90
5711;DHT22;61291;52.524;13.422;2023-08-01T11:34:25;22.90;99.90
5711;DHT22;61291;52.524;13.422;2023-08-01T11:36:51;23.80;99.90
5711;DHT22;61291;52.524;13.422;2023-08-01T11:39:17;24.80;99.90
5711;DHT22;61291;52.524;13.422;2023-08-01T11:41:43;25.60;99.90
5711;DHT22;61291;52.524;13.422;2023-08-01T11:44:09;26.30;99.90
5711;DHT22;61291;52.524;13.422;2023-08-01T11:46:37;26.70;99.90
5711;DHT22;61291;52.524;13.422;2023-08-01T11:49:03;27.40;99.90
5711;DHT22;61291;52.524;13.422;2023-08-01T11:51:29;27.90;99.90
5711;DHT22;61291;52.524;13.422;2023-08-01T11:53:59;28.20;99.90
5711;DHT22;61291;52.524;13.422;2023-08-01T11:56:25;28.40;99.90
5711;DHT22;61291;52.524;13.422;2023-08-01T11:58:50;28.40;99.90
5711;DHT22;61291;52.524;13.422;2023-08-01T12:01:16;28.30;99.90
5711;DHT22;61291;52.524;13.422;2023-08-01T12:03:46;28.20;99.90
5711;DHT22;61291;52.524;13.422;2023-08-01T12:06:12;28.30;99.90
5711;DHT22;61291;52.524;13.422;2023-08-01T12:08:41;28.40;99.90
5711;DHT22;61291;52.524;13.422;2023-08-01T12:11:17;28.60;99.90
5711;DHT22;61291;52.524;13.422;2023-08-01T12:13:44;28.40;99.90
5711;DHT22;61291;52.524;13.422;2023-08-01T12:16:09;28.20;99.90
5711;DHT22;61291;52.524;13.422;2023-08-01T12:18:35;28.70;99.90
5711;DHT22;61291;52.524;13.422;2023-08-01T12:21:02;29.00;99.90
5711;DHT22;61291;52.524;13.422;2023-08-01T12:23:31;28.80;99.90
5711;DHT22;61291;52.524;13.422;2023-08-01T12:25:56;28.60;99.90
5711;DHT22;61291;52.524;13.422;2023-08-01T12:28:22;28.40;98.00
5711;DHT22;61291;52.524;13.422;2023-08-01T12:30:47;28.20;98.20
5711;DHT22;61291;52.524;13.422;2023-08-01T12:33:13;28.10;98.40
5711;DHT22;61291;52.524;13.422;2023-08-01T12:35:40;28.20;98.50
5711;DHT22;61291;52.524;13.422;2023-08-01T12:38:06;28.50;98.30
5711;DHT22;61291;52.524;13.422;2023-08-01T12:40:32;28.40;97.90
5711;DHT22;61291;52.524;13.422;2023-08-01T12:42:57;28.60;97.80
5711;DHT22;61291;52.524;13.422;2023-08-01T12:45:23;29.40;97.80
5711;DHT22;61291;52.524;13.422;2023-08-01T12:47:49;30.10;96.90
5711;DHT22;61291;52.524;13.422;2023-08-01T12:50:14;29.80;96.00
5711;DHT22;61291;52.524;13.422;2023-08-01T12:52:40;29.10;95.40
5711;DHT22;61291;52.524;13.422;2023-08-01T12:55:05;28.80;94.70
5711;DHT22;61291;52.524;13.422;2023-08-01T12:57:31;28.60;95.30
5711;DHT22;61291;52.524;13.422;2023-08-01T12:59:57;28.60;95.80
5711;DHT22;61291;52.524;13.422;2023-08-01T13:02:22;28.70;96.00
5711;DHT22;61291;52.524;13.422;2023-08-01T13:04:47;28.70;96.00
5711;DHT22;61291;52.524;13.422;2023-08-01T13:07:13;28.70;95.90
5711;DHT22;61291;52.524;13.422;2023-08-01T13:09:39;29.00;95.70
5711;DHT22;61291;52.524;13.422;2023-08-01T13:12:05;29.30;95.40
5711;DHT22;61291;52.524;13.422;2023-08-01T13:14:31;29.40;95.20
5711;DHT22;61291;52.524;13.422;2023-08-01T13:16:57;29.10;94.30
5711;DHT22;61291;52.524;13.422;2023-08-01T13:19:23;28.80;94.00
5711;DHT22;61291;52.524;13.422;2023-08-01T13:21:48;28.40;94.30
5711;DHT22;61291;52.524;13.422;2023-08-01T13:24:14;28.60;94.50
5711;DHT22;61291;52.524;13.422;2023-08-01T13:26:39;28.50;94.40
5711;DHT22;61291;52.524;13.422;2023-08-01T13:29:05;28.40;94.60
5711;DHT22;61291;52.524;13.422;2023-08-01T13:31:30;28.80;94.70
5711;DHT22;61291;52.524;13.422;2023-08-01T13:33:56;29.00;94.30
5711;DHT22;61291;52.524;13.422;2023-08-01T13:36:21;28.80;93.80
5711;DHT22;61291;52.524;13.422;2023-08-01T13:38:47;29.00;93.80
5711;DHT22;61291;52.524;13.422;2023-08-01T13:41:14;28.80;93.50
5711;DHT22;61291;52.524;13.422;2023-08-01T13:43:39;28.30;93.30
5711;DHT22;61291;52.524;13.422;2023-08-01T13:46:14;28.10;93.80
5711;DHT22;61291;52.524;13.422;2023-08-01T13:48:41;27.80;94.00
5711;DHT22;61291;52.524;13.422;2023-08-01T13:51:06;27.50;94.30
5711;DHT22;61291;52.524;13.422;2023-08-01T13:53:31;27.40;94.40
5711;DHT22;61291;52.524;13.422;2023-08-01T13:55:57;27.50;94.60
5711;DHT22;61291;52.524;13.422;2023-08-01T13:58:23;27.50;94.50
5711;DHT22;61291;52.524;13.422;2023-08-01T14:00:48;27.10;94.80
5711;DHT22;61291;52.524;13.422;2023-08-01T14:03:14;26.90;95.00
5711;DHT22;61291;52.524;13.422;2023-08-01T14:05:39;26.60;95.00
5711;DHT22;61291;52.524;13.422;2023-08-01T14:08:05;26.70;95.30
5711;DHT22;61291;52.524;13.422;2023-08-01T14:10:30;26.90;94.70
5711;DHT22;61291;52.524;13.422;2023-08-01T14:12:56;26.90;94.50
5711;DHT22;61291;52.524;13.422;2023-08-01T14:15:21;26.70;94.60
5711;DHT22;61291;52.524;13.422;2023-08-01T14:17:47;26.60;94.70
5711;DHT22;61291;52.524;13.422;2023-08-01T14:20:12;26.50;94.80
5711;DHT22;61291;52.524;13.422;2023-08-01T14:22:37;26.10;95.10
5711;DHT22;61291;52.524;13.422;2023-08-01T14:25:05;26.00;95.10
5711;DHT22;61291;52.524;13.422;2023-08-01T14:27:31;26.20;95.50
5711;DHT22;61291;52.524;13.422;2023-08-01T14:29:56;26.60;95.40
5711;DHT22;61291;52.524;13.422;2023-08-01T14:32:22;26.50;95.00
5711;DHT22;61291;52.524;13.422;2023-08-01T14:34:48;26.60;94.70
5711;DHT22;61291;52.524;13.422;2023-08-01T14:37:13;26.70;94.10
5711;DHT22;61291;52.524;13.422;2023-08-01T14:39:38;26.50;94.00
5711;DHT22;61291;52.524;13.422;2023-08-01T14:42:04;26.20;93.90
5711;DHT22;61291;52.524;13.422;2023-08-01T14:44:30;25.70;94.10
5711;DHT22;61291;52.524;13.422;2023-08-01T14:46:56;25.40;94.20
5711;DHT22;61291;52.524;13.422;2023-08-01T14:49:22;25.40;94.20
5711;DHT22;61291;52.524;13.422;2023-08-01T14:51:48;25.60;94.30
5711;DHT22;61291;52.524;13.422;2023-08-01T14:54:15;26.00;94.40
5711;DHT22;61291;52.524;13.422;2023-08-01T14:56:40;26.50;94.30
5711;DHT22;61291;52.524;13.422;2023-08-01T14:59:06;26.40;93.20
5711;DHT22;61291;52.524;13.422;2023-08-01T15:01:31;26.40;92.70
5711;DHT22;61291;52.524;13.422;2023-08-01T15:03:56;26.30;92.30
5711;DHT22;61291;52.524;13.422;2023-08-01T15:06:22;26.10;92.20
5711;DHT22;61291;52.524;13.422;2023-08-01T15:08:49;25.80;92.20
5711;DHT22;61291;52.524;13.422;2023-08-01T15:11:15;25.60;92.40
5711;DHT22;61291;52.524;13.422;2023-08-01T15:13:40;25.40;92.50
5711;DHT22;61291;52.524;13.422;2023-08-01T15:16:09;25.10;92.50
5711;DHT22;61291;52.524;13.422;2023-08-01T15:18:35;24.70;92.80
5711;DHT22;61291;52.524;13.422;2023-08-01T15:21:01;24.20;94.50
5711;DHT22;61291;52.524;13.422;2023-08-01T15:23:26;23.50;96.70
5711;DHT22;61291;52.524;13.422;2023-08-01T15:25:56;22.90;98.50
5711;DHT22;61291;52.524;13.422;2023-08-01T15:28:22;22.40;99.90